Terminal Aerodrome Forecast
Issued by NWS

Home | Current Version | Previous Version | Text Only | Print | Product List | Glossary Off
Versions: 1 2 3 4 5 6 7 8 9 10 11 12 13 14 15 16 17

000
FTUS43 KABR 201739
TAFMBG
TAF
KMBG 201739Z 2018/2118 03009KT P6SM VCSH BKN120
     FM202000 03008KT P6SM SCT250
     FM210000 08007KT P6SM SKC
     FM211400 14005KT P6SM BKN150=

USA.gov is the U.S. government's official web portal to all federal, state and local government web resources and services.